Time;durP1;ratioP1;P1;durP2;ratioP2;P2;SDS_P1;SDS_P2;PMS_P1;PMS_P2;Temp;Humidity;BMP_temperature;BMP_pressure;BME280_temperature;BME280_humidity;BME280_pressure;Samples;Min_cycle;Max_cycle;Signal;HPM_P1;HPM_P2
2023/04/20 00:01:23;;;;;;;3.83;2.60;;;;;;;5.97;88.04;95976.88;5073563;28;20090;-67
2023/04/20 00:03:50;;;;;;;4.28;2.60;;;;;;;5.97;88.15;95983.81;5073583;28;20101;-67
2023/04/20 00:06:20;;;;;;;7.53;2.70;;;;;;;5.94;87.89;95977.81;5073494;28;20052;-67
2023/04/20 00:08:47;;;;;;;3.83;2.80;;;;;;;5.96;87.99;95972.56;5073358;28;20070;-68
2023/04/20 00:11:14;;;;;;;3.53;2.65;;;;;;;5.98;87.78;95969.94;5073358;28;20398;-67
2023/04/20 00:13:41;;;;;;;2.72;2.40;;;;;;;5.95;87.38;95965.69;5073201;28;20131;-68
2023/04/20 00:16:09;;;;;;;3.08;2.40;;;;;;;5.94;87.79;95964.81;5073347;28;20383;-67
2023/04/20 00:18:39;;;;;;;5.55;2.35;;;;;;;5.91;87.35;95956.28;5073307;28;20106;-67
2023/04/20 00:21:06;;;;;;;4.63;2.87;;;;;;;5.87;87.90;95959.88;5073268;28;20406;-67
2023/04/20 00:23:33;;;;;;;5.93;2.40;;;;;;;5.81;87.68;95953.13;5073211;28;20063;-67
2023/04/20 00:26:00;;;;;;;7.38;2.70;;;;;;;5.82;88.37;95953.03;5073149;28;20040;-67
2023/04/20 00:28:28;;;;;;;11.10;2.67;;;;;;;5.85;88.39;95952.13;5073089;28;20040;-68
2023/04/20 00:30:55;;;;;;;5.10;2.20;;;;;;;5.88;88.12;95951.19;5073183;28;20052;-67
2023/04/20 00:33:22;;;;;;;3.85;2.30;;;;;;;5.87;88.12;95950.31;5073053;28;20071;-67
2023/04/20 00:35:51;;;;;;;5.47;2.05;;;;;;;5.88;88.42;95949.44;5073130;28;20101;-67
2023/04/20 00:38:18;;;;;;;2.50;2.30;;;;;;;5.86;88.74;95940.84;5073068;28;20146;-68
2023/04/20 00:40:51;;;;;;;2.97;2.17;;;;;;;5.90;89.17;95945.03;5073145;28;20047;-69
2023/04/20 00:43:20;;;;;;;3.97;2.70;;;;;;;5.94;89.17;95940.63;5073043;28;20072;-68
2023/04/20 00:45:48;;;;;;;8.73;2.00;;;;;;;5.90;89.43;95937.25;5073006;28;20048;-67
2023/04/20 00:48:15;;;;;;;4.80;2.63;;;;;;;5.84;90.72;95929.63;5072592;28;20091;-67
2023/04/20 00:50:42;;;;;;;2.40;2.13;;;;;;;5.88;91.46;95933.00;5072985;28;20044;-67
2023/04/20 00:53:11;;;;;;;3.20;2.47;;;;;;;5.92;91.43;95929.41;5073112;28;20506;-67
2023/04/20 00:55:40;;;;;;;5.60;2.70;;;;;;;5.92;91.01;95938.06;5072885;28;20095;-68
2023/04/20 00:58:07;;;;;;;3.13;2.05;;;;;;;5.98;90.81;95926.66;5072846;28;20410;-67
2023/04/20 01:00:34;;;;;;;2.50;2.30;;;;;;;6.02;90.55;95919.63;5072964;28;20474;-71
2023/04/20 01:03:01;;;;;;;4.60;2.15;;;;;;;6.09;90.98;95921.19;5072804;28;20084;-70
2023/04/20 01:05:29;;;;;;;3.47;2.45;;;;;;;6.11;90.79;95926.31;5072905;28;20045;-70
2023/04/20 01:07:56;;;;;;;5.60;2.63;;;;;;;6.11;91.04;95927.16;5072923;28;20044;-68
2023/04/20 01:10:24;;;;;;;4.80;3.10;;;;;;;6.07;91.69;95929.00;5072652;28;20048;-67
2023/04/20 01:12:52;;;;;;;3.30;2.75;;;;;;;6.11;92.02;95921.97;5072717;28;20480;-69
2023/04/20 01:15:19;;;;;;;5.03;2.38;;;;;;;6.12;91.97;95921.09;5072715;28;20052;-69
2023/04/20 01:17:46;;;;;;;3.42;2.40;;;;;;;6.15;91.53;95923.59;5072589;28;20048;-70
2023/04/20 01:20:14;;;;;;;3.80;3.17;;;;;;;6.15;91.25;95923.59;5072689;28;20048;-68
2023/04/20 01:22:47;;;;;;;4.47;3.00;;;;;;;6.11;91.17;95916.78;5072770;28;20487;-69
2023/04/20 01:25:14;;;;;;;5.45;2.53;;;;;;;6.16;90.84;95916.63;5075090;28;20044;-69
2023/04/20 01:27:42;;;;;;;3.40;3.10;;;;;;;6.15;90.31;95921.00;5076441;28;20048;-69
2023/04/20 01:30:10;;;;;;;6.20;3.50;;;;;;;6.14;90.20;95921.03;5076311;28;20048;-69
2023/04/20 01:32:37;;;;;;;4.68;2.85;;;;;;;6.10;90.06;95922.88;5076251;28;20490;-69
2023/04/20 01:35:05;;;;;;;5.43;3.22;;;;;;;6.09;89.94;95925.50;5076230;28;20054;-70
2023/04/20 01:37:32;;;;;;;6.15;2.88;;;;;;;6.05;89.74;95925.59;5076220;28;20044;-67
2023/04/20 01:40:01;;;;;;;4.10;2.70;;;;;;;6.01;89.44;95921.38;5076201;28;20087;-68
2023/04/20 01:42:29;;;;;;;3.67;3.00;;;;;;;5.98;89.01;95924.06;5076187;28;20387;-67
2023/04/20 01:44:56;;;;;;;4.93;3.47;;;;;;;5.98;88.98;95923.19;5076102;28;20051;-68
2023/04/20 01:47:23;;;;;;;5.10;3.80;;;;;;;5.98;88.48;95920.59;5075788;28;20139;-67
2023/04/20 01:49:50;;;;;;;7.50;3.45;;;;;;;5.88;88.57;95917.44;5075954;28;20053;-69
2023/04/20 01:52:17;;;;;;;6.40;3.47;;;;;;;5.86;88.81;95914.88;5075909;28;20135;-69
2023/04/20 01:54:44;;;;;;;4.53;4.13;;;;;;;5.86;88.43;95914.88;5075891;28;20079;-70
2023/04/20 01:57:13;;;;;;;6.53;4.13;;;;;;;5.84;88.58;95913.22;5075900;28;20486;-68
2023/04/20 01:59:40;;;;;;;4.97;4.47;;;;;;;5.84;89.14;95914.06;5075931;28;20143;-69
2023/04/20 02:02:07;;;;;;;10.23;4.55;;;;;;;5.86;89.10;95914.00;5075873;28;20044;-68
2023/04/20 02:04:34;;;;;;;8.00;5.35;;;;;;;5.85;89.40;95912.31;5075740;28;20052;-69
2023/04/20 02:07:02;;;;;;;7.18;5.40;;;;;;;5.82;89.49;95908.91;5075833;28;20044;-69
2023/04/20 02:09:29;;;;;;;7.97;5.05;;;;;;;5.80;89.85;95909.84;5075603;28;20057;-69
2023/04/20 02:11:58;;;;;;;7.05;4.80;;;;;;;5.79;90.07;95909.03;5075614;28;20414;-69
2023/04/20 02:14:27;;;;;;;9.68;5.20;;;;;;;5.81;90.13;95907.22;5075564;28;20048;-68
2023/04/20 02:16:54;;;;;;;9.35;5.18;;;;;;;5.81;90.79;95907.22;5075607;28;20040;-67
2023/04/20 02:19:20;;;;;;;7.93;5.40;;;;;;;5.82;90.41;95897.69;5075443;28;20134;-68
2023/04/20 02:21:47;;;;;;;8.45;5.05;;;;;;;5.74;90.59;95912.63;5075396;28;20083;-67
2023/04/20 02:24:15;;;;;;;8.52;6.45;;;;;;;5.72;90.80;95911.84;5075335;28;20101;-70
2023/04/20 02:26:42;;;;;;;5.60;5.00;;;;;;;5.74;90.96;95915.22;5075543;28;20563;-70
2023/04/20 02:29:09;;;;;;;8.77;5.07;;;;;;;5.78;91.10;95909.91;5075301;28;20078;-69
2023/04/20 02:31:38;;;;;;;6.78;5.45;;;;;;;5.81;91.91;95912.41;5075240;28;20055;-70
2023/04/20 02:34:08;;;;;;;5.70;5.10;;;;;;;5.76;92.16;95906.53;5075240;28;20056;-69
2023/04/20 02:36:35;;;;;;;6.45;4.82;;;;;;;5.77;91.79;95904.75;5075082;28;20053;-68
2023/04/20 02:39:03;;;;;;;5.60;5.10;;;;;;;5.73;91.06;95908.34;5075331;28;20053;-69
2023/04/20 02:41:30;;;;;;;12.85;5.68;;;;;;;5.64;92.65;95902.53;5075064;28;20553;-70
2023/04/20 02:43:57;;;;;;;9.43;6.32;;;;;;;5.58;92.82;95897.50;5075016;28;20044;-68
2023/04/20 02:46:24;;;;;;;8.10;6.93;;;;;;;5.58;93.45;95902.69;5074929;28;20048;-69
2023/04/20 02:48:54;;;;;;;9.13;6.18;;;;;;;5.60;93.40;95898.31;5074751;28;20498;-68
2023/04/20 02:51:21;;;;;;;13.70;6.03;;;;;;;5.73;92.76;95895.38;5074901;28;20074;-67
2023/04/20 02:53:49;;;;;;;7.65;5.18;;;;;;;5.69;92.61;95911.03;5075006;28;20051;-68
2023/04/20 02:56:16;;;;;;;6.20;4.75;;;;;;;5.72;91.87;95898.88;5074822;28;20052;-68
2023/04/20 02:58:43;;;;;;;7.18;4.78;;;;;;;5.65;92.37;95905.97;5074767;28;20045;-67
2023/04/20 03:01:11;;;;;;;11.23;5.38;;;;;;;5.72;92.64;95906.66;5074656;28;20051;-67
2023/04/20 03:03:38;;;;;;;10.85;6.10;;;;;;;5.71;93.22;95904.94;5074759;28;20048;-67
2023/04/20 03:06:07;;;;;;;5.72;5.13;;;;;;;5.73;94.25;95909.19;5074598;28;20119;-67
2023/04/20 03:08:34;;;;;;;6.55;4.75;;;;;;;5.74;93.55;95897.06;5074555;28;20044;-66
2023/04/20 03:11:01;;;;;;;9.68;6.88;;;;;;;5.73;95.41;95900.56;5074530;28;20044;-67
2023/04/20 03:13:28;;;;;;;7.63;5.75;;;;;;;5.78;95.43;95898.69;5074393;28;20044;-68
2023/04/20 03:15:55;;;;;;;11.65;5.93;;;;;;;5.79;94.30;95901.25;5074410;28;20074;-67
2023/04/20 03:18:23;;;;;;;9.85;6.00;;;;;;;5.79;93.39;95909.03;5074542;28;20090;-67
2023/04/20 03:20:50;;;;;;;8.15;5.30;;;;;;;5.79;93.34;95906.44;5074147;28;20048;-67
2023/04/20 03:23:19;;;;;;;7.50;6.22;;;;;;;5.78;92.97;95916.88;5074232;28;20541;-66
2023/04/20 03:25:46;;;;;;;9.55;6.55;;;;;;;5.81;93.57;95909.81;5074222;28;20135;-67
2023/04/20 03:28:13;;;;;;;10.52;6.15;;;;;;;5.87;93.58;95916.56;5074153;28;20138;-68
2023/04/20 03:30:40;;;;;;;9.70;6.45;;;;;;;5.89;92.65;95917.38;5074153;28;20128;-68
2023/04/20 03:33:08;;;;;;;11.98;7.47;;;;;;;5.85;93.34;95918.38;5073993;28;20048;-67
2023/04/20 03:35:38;;;;;;;9.63;6.85;;;;;;;5.93;93.81;95921.59;5074023;28;20076;-67
2023/04/20 03:38:05;;;;;;;8.90;7.03;;;;;;;5.96;93.92;95904.22;5073959;28;20055;-68
2023/04/20 03:40:34;;;;;;;12.43;6.97;;;;;;;5.98;93.81;95911.06;5073972;28;20482;-67
2023/04/20 03:43:02;;;;;;;8.25;6.65;;;;;;;6.04;94.33;95912.66;5073896;28;20131;-67
2023/04/20 03:45:29;;;;;;;7.97;6.80;;;;;;;6.07;93.95;95907.38;5073791;28;20056;-67
2023/04/20 03:47:56;;;;;;;9.45;7.07;;;;;;;6.12;93.47;95910.69;5072858;28;20056;-68
2023/04/20 03:50:25;;;;;;;8.43;7.28;;;;;;;6.15;93.19;95913.22;5073900;28;20131;-67
2023/04/20 03:52:53;;;;;;;10.57;7.13;;;;;;;6.17;93.78;95913.16;5073671;28;20044;-68
2023/04/20 03:55:20;;;;;;;10.85;7.78;;;;;;;6.24;94.15;95912.06;5073670;28;20101;-66
2023/04/20 03:57:51;;;;;;;9.13;7.05;;;;;;;6.29;94.16;95911.94;5073545;28;20162;-66
2023/04/20 04:00:18;;;;;;;8.15;7.28;;;;;;;6.25;94.65;95910.31;5073311;28;20059;-68
2023/04/20 04:02:45;;;;;;;9.15;7.57;;;;;;;6.37;95.06;95914.28;5073671;28;20052;-68
2023/04/20 04:05:12;;;;;;;9.57;7.95;;;;;;;6.56;96.00;95920.59;5073527;28;20076;-67
2023/04/20 04:07:40;;;;;;;7.60;6.68;;;;;;;6.79;95.81;95921.59;5073481;28;20071;-67
2023/04/20 04:10:08;;;;;;;9.27;7.07;;;;;;;6.88;94.51;95927.38;5073326;28;20076;-67
2023/04/20 04:12:35;;;;;;;7.55;6.72;;;;;;;7.08;94.45;95930.16;5073347;28;20041;-67
2023/04/20 04:15:05;;;;;;;7.60;6.05;;;;;;;7.41;94.08;95926.44;5073295;28;20047;-68
2023/04/20 04:17:32;;;;;;;10.98;6.22;;;;;;;7.73;92.60;95922.78;5073318;28;20094;-68
2023/04/20 04:20:00;;;;;;;6.10;5.22;;;;;;;7.95;90.84;95931.47;5073201;28;20056;-69
2023/04/20 04:22:28;;;;;;;6.07;5.35;;;;;;;8.06;88.52;95927.63;5073270;28;20460;-68
2023/04/20 04:24:56;;;;;;;5.25;4.75;;;;;;;8.06;86.51;95925.88;5073281;28;20048;-66
2023/04/20 04:27:23;;;;;;;5.97;5.03;;;;;;;8.14;85.51;95927.34;5073200;28;20048;-67
2023/04/20 04:29:50;;;;;;;6.57;5.00;;;;;;;8.19;84.68;95926.25;5073153;28;20383;-67
2023/04/20 04:32:19;;;;;;;5.05;4.55;;;;;;;8.22;84.30;95933.94;5073264;28;20045;-68
2023/04/20 04:34:47;;;;;;;6.93;5.38;;;;;;;8.19;84.37;95926.25;5073245;28;20098;-67
2023/04/20 04:37:14;;;;;;;8.23;4.75;;;;;;;8.25;83.67;95929.53;5073099;28;20044;-67
2023/04/20 04:39:42;;;;;;;5.38;4.88;;;;;;;8.23;83.14;95934.81;5073031;28;20494;-68
2023/04/20 04:42:09;;;;;;;6.82;5.68;;;;;;;8.17;82.79;95930.69;5073090;28;20048;-68
2023/04/20 04:44:38;;;;;;;10.57;5.43;;;;;;;8.31;83.67;95932.75;5073052;28;20049;-68
2023/04/20 04:47:08;;;;;;;9.15;5.50;;;;;;;8.67;82.98;95927.94;5072733;28;20127;-68
2023/04/20 04:49:36;;;;;;;12.15;5.32;;;;;;;9.19;82.68;95930.16;5072964;28;20552;-67
2023/04/20 04:52:04;;;;;;;7.22;4.80;;;;;;;9.76;80.25;95933.84;5072929;28;20054;-68
2023/04/20 04:54:31;;;;;;;7.75;4.63;;;;;;;10.35;78.37;95927.69;5072896;28;20131;-67
2023/04/20 04:56:59;;;;;;;13.68;4.15;;;;;;;10.85;77.13;95926.25;5073170;28;20090;-66
2023/04/20 04:59:26;;;;;;;5.65;3.95;;;;;;;11.43;74.62;95935.63;5074035;28;20048;-66
2023/04/20 05:01:53;;;;;;;6.25;4.00;;;;;;;12.00;72.70;95932.66;5077402;28;20053;-66
2023/04/20 05:04:20;;;;;;;3.85;3.55;;;;;;;12.60;70.78;95927.75;5077137;28;20134;-68
2023/04/20 05:06:49;;;;;;;12.82;3.75;;;;;;;13.13;68.30;95931.78;5076885;28;20048;-67
2023/04/20 05:09:16;;;;;;;5.40;3.78;;;;;;;13.61;67.53;95925.53;5076817;28;20064;-66
2023/04/20 05:11:43;;;;;;;6.07;3.40;;;;;;;14.09;66.08;95933.13;5076705;28;20079;-67
2023/04/20 05:14:11;;;;;;;5.15;3.63;;;;;;;14.46;63.92;95932.63;5076630;28;20044;-68
2023/04/20 05:16:38;;;;;;;4.47;3.22;;;;;;;14.91;63.23;95942.13;5077031;28;20127;-67
2023/04/20 05:19:05;;;;;;;8.63;3.92;;;;;;;15.36;61.88;95938.34;5076863;28;20044;-66
2023/04/20 05:21:33;;;;;;;5.72;3.63;;;;;;;15.77;59.03;95944.38;5076573;28;20063;-64
2023/04/20 05:24:02;;;;;;;5.28;3.95;;;;;;;16.15;58.45;95946.19;5076536;28;20133;-66
2023/04/20 05:26:29;;;;;;;4.88;3.45;;;;;;;16.53;58.88;95944.41;5076797;28;20101;-66
2023/04/20 05:28:57;;;;;;;3.40;3.10;;;;;;;16.87;55.42;95949.06;5076440;28;20044;-65
2023/04/20 05:31:25;;;;;;;4.78;3.08;;;;;;;17.33;53.84;95957.19;5076494;28;20123;-66
2023/04/20 05:33:52;;;;;;;5.10;2.72;;;;;;;17.59;53.33;95961.50;5076426;28;20094;-67
2023/04/20 05:36:20;;;;;;;4.57;3.33;;;;;;;17.77;54.59;95959.25;5076205;28;20040;-68
2023/04/20 05:38:47;;;;;;;6.70;3.53;;;;;;;17.94;53.81;95953.50;5076164;28;20517;-65
2023/04/20 05:41:16;;;;;;;3.58;3.28;;;;;;;18.12;52.15;95966.28;5076161;28;20083;-65
2023/04/20 05:43:43;;;;;;;5.10;3.80;;;;;;;18.24;52.19;95964.47;5076226;28;20049;-65
2023/04/20 05:46:10;;;;;;;4.78;3.53;;;;;;;18.46;51.71;95976.03;5076202;28;20098;-68
2023/04/20 05:48:37;;;;;;;5.97;4.18;;;;;;;18.48;51.26;95974.09;5075949;28;20537;-66
2023/04/20 05:51:05;;;;;;;4.45;3.53;;;;;;;18.62;50.96;95969.50;5075946;28;20053;-67
2023/04/20 05:53:33;;;;;;;3.88;3.45;;;;;;;18.74;48.95;95976.50;5075966;28;20497;-65
2023/04/20 05:56:00;;;;;;;7.50;3.60;;;;;;;18.67;49.59;95968.19;5075867;28;20486;-66
2023/04/20 05:58:28;;;;;;;8.40;3.75;;;;;;;18.38;51.75;95974.00;5075818;28;20048;-65
2023/04/20 06:00:56;;;;;;;5.88;3.90;;;;;;;18.35;52.24;95966.28;5075998;28;20053;-66
2023/04/20 06:03:23;;;;;;;8.68;4.10;;;;;;;18.25;48.63;95968.84;5075768;28;20101;-66
2023/04/20 06:05:50;;;;;;;8.07;4.22;;;;;;;18.28;41.84;95976.53;5075817;28;20083;-66
2023/04/20 06:08:18;;;;;;;4.47;3.97;;;;;;;18.47;45.42;95976.88;5075707;28;20127;-65
2023/04/20 06:10:45;;;;;;;5.95;3.58;;;;;;;18.47;42.20;95974.22;5074969;28;20052;-68
2023/04/20 06:13:13;;;;;;;5.28;4.28;;;;;;;18.43;44.91;95976.28;5075718;28;20506;-65
2023/04/20 06:15:42;;;;;;;4.60;3.17;;;;;;;18.69;41.30;95976.00;5075622;28;20044;-66
2023/04/20 06:18:10;;;;;;;5.18;3.65;;;;;;;18.54;41.36;95978.91;5075588;28;20049;-68
2023/04/20 06:20:38;;;;;;;5.28;4.00;;;;;;;18.75;42.64;95977.34;5075495;28;20110;-66
2023/04/20 06:23:05;;;;;;;4.68;3.33;;;;;;;18.78;40.04;95977.09;5075397;28;20052;-67
2023/04/20 06:25:32;;;;;;;4.25;3.85;;;;;;;18.66;42.46;95974.44;5075665;28;20128;-66
2023/04/20 06:27:59;;;;;;;4.25;3.85;;;;;;;18.56;38.93;95979.66;5075312;28;20047;-67
2023/04/20 06:30:27;;;;;;;9.48;4.60;;;;;;;18.61;40.38;95971.34;5075273;28;20524;-66
2023/04/20 06:32:55;;;;;;;4.68;3.83;;;;;;;18.42;41.88;95969.28;5075228;28;20135;-66
2023/04/20 06:35:23;;;;;;;8.00;4.60;;;;;;;18.11;42.60;95975.19;5075225;28;20049;-66
2023/04/20 06:37:50;;;;;;;5.47;4.38;;;;;;;18.11;40.18;95977.00;5075096;28;20497;-66
2023/04/20 06:40:17;;;;;;;4.25;3.70;;;;;;;18.25;41.72;95975.94;5075158;28;20089;-66
2023/04/20 06:42:45;;;;;;;6.50;4.13;;;;;;;18.26;42.08;95973.16;5075037;28;20053;-66
2023/04/20 06:45:12;;;;;;;10.85;4.25;;;;;;;18.53;41.51;95979.03;5075035;28;20075;-67
2023/04/20 06:47:39;;;;;;;5.97;3.72;;;;;;;18.28;41.29;95980.97;5074815;28;20060;-67
2023/04/20 06:50:09;;;;;;;7.72;3.80;;;;;;;18.46;41.28;95973.41;5075153;28;20098;-66
2023/04/20 06:52:37;;;;;;;4.88;3.85;;;;;;;18.63;42.67;95965.91;5074852;28;20044;-67
2023/04/20 06:55:05;;;;;;;4.13;3.72;;;;;;;18.91;42.69;95972.47;5074886;28;20044;-66
2023/04/20 06:57:33;;;;;;;6.50;4.18;;;;;;;19.16;39.37;95981.13;5074816;28;20086;-68
2023/04/20 07:00:00;;;;;;;7.25;4.07;;;;;;;19.34;40.54;95967.31;5074664;28;20128;-66
2023/04/20 07:02:28;;;;;;;4.78;4.22;;;;;;;19.36;40.40;95970.69;5074703;28;20048;-67
2023/04/20 07:05:01;;;;;;;4.47;4.03;;;;;;;19.66;39.25;95981.50;5074646;28;20128;-66
2023/04/20 07:07:30;;;;;;;5.18;4.28;;;;;;;19.62;38.93;95986.22;5074592;28;20044;-67
2023/04/20 07:09:58;;;;;;;4.93;4.43;;;;;;;19.50;38.21;95981.97;5074497;28;20123;-67
2023/04/20 07:12:25;;;;;;;4.97;4.40;;;;;;;19.36;38.96;95978.63;5074348;28;20056;-67
2023/04/20 07:14:53;;;;;;;5.53;3.70;;;;;;;19.68;41.12;95976.88;5074295;28;20585;-68
2023/04/20 07:17:20;;;;;;;4.32;3.92;;;;;;;19.72;37.66;95985.44;5074402;28;20044;-66
2023/04/20 07:19:47;;;;;;;5.80;4.30;;;;;;;19.43;37.95;95977.16;5074290;28;20040;-67
2023/04/20 07:22:14;;;;;;;4.35;3.95;;;;;;;19.57;37.52;95980.47;5073328;28;20063;-68
2023/04/20 07:24:43;;;;;;;6.88;3.85;;;;;;;19.74;36.59;95981.69;5074141;28;20131;-67
2023/04/20 07:27:10;;;;;;;4.55;3.90;;;;;;;20.02;38.25;95986.50;5074187;28;20135;-69
2023/04/20 07:29:37;;;;;;;7.70;3.67;;;;;;;20.24;36.84;95982.84;5074291;28;20060;-68
2023/04/20 07:32:05;;;;;;;5.13;4.00;;;;;;;20.43;36.39;95984.75;5074193;28;20478;-68
2023/04/20 07:34:32;;;;;;;6.57;3.97;;;;;;;20.83;36.41;95976.91;5073953;28;20106;-68
2023/04/20 07:36:59;;;;;;;6.93;4.45;;;;;;;21.01;36.53;95978.94;5074041;28;20053;-67
2023/04/20 07:39:29;;;;;;;5.70;4.38;;;;;;;21.02;37.13;95985.91;5074151;28;20131;-69
2023/04/20 07:41:58;;;;;;;3.95;3.53;;;;;;;20.99;33.98;95975.56;5073894;28;20045;-67
2023/04/20 07:44:25;;;;;;;5.38;4.10;;;;;;;20.98;33.90;95972.03;5073799;28;20087;-68
2023/04/20 07:46:53;;;;;;;5.35;3.88;;;;;;;20.66;36.22;95963.31;5073906;28;20086;-68
2023/04/20 07:49:20;;;;;;;4.65;4.15;;;;;;;20.83;35.57;95974.25;5073805;28;20055;-67
2023/04/20 07:51:48;;;;;;;4.40;4.00;;;;;;;20.99;32.62;95965.78;5073564;28;20048;-67
2023/04/20 07:54:15;;;;;;;4.28;3.70;;;;;;;20.60;36.11;95974.47;5073700;28;20048;-67
2023/04/20 07:56:42;;;;;;;5.25;4.18;;;;;;;20.27;35.63;95965.81;5073460;28;20056;-67
2023/04/20 07:59:11;;;;;;;4.00;3.63;;;;;;;19.91;34.63;95972.31;5073609;28;20136;-69
2023/04/20 08:01:38;;;;;;;6.03;3.80;;;;;;;20.07;38.13;95974.53;5073586;28;20464;-67
2023/04/20 08:04:06;;;;;;;6.00;3.88;;;;;;;20.33;36.14;95976.75;5073711;28;20129;-68
2023/04/20 08:06:33;;;;;;;4.95;4.45;;;;;;;20.54;36.83;95982.97;5073412;28;20048;-69
2023/04/20 08:09:00;;;;;;;10.45;3.70;;;;;;;20.67;34.98;95969.44;5073492;28;20044;-69
2023/04/20 08:11:28;;;;;;;3.80;3.38;;;;;;;20.77;33.98;95969.47;5073394;28;20048;-69
2023/04/20 08:13:55;;;;;;;6.32;3.95;;;;;;;20.82;34.44;95959.25;5073446;28;20049;-67
2023/04/20 08:16:24;;;;;;;6.43;3.97;;;;;;;20.74;32.96;95959.94;5073289;28;20048;-68
2023/04/20 08:18:51;;;;;;;5.55;3.75;;;;;;;20.54;32.38;95957.25;5073278;28;20101;-67
2023/04/20 08:21:21;;;;;;;5.97;3.85;;;;;;;20.42;34.90;95964.47;5073279;28;20122;-68
2023/04/20 08:23:48;;;;;;;4.22;3.75;;;;;;;20.25;33.87;95963.28;5073275;28;20049;-67
2023/04/20 08:26:16;;;;;;;7.22;4.07;;;;;;;20.18;34.22;95957.69;5073229;28;20052;-69
2023/04/20 08:28:44;;;;;;;4.40;3.90;;;;;;;20.49;38.83;95961.25;5073300;28;20391;-67
2023/04/20 08:31:13;;;;;;;8.32;4.20;;;;;;;20.57;36.59;95966.75;5072975;28;20090;-66
2023/04/20 08:33:42;;;;;;;6.45;3.65;;;;;;;20.75;33.94;95950.16;5073027;28;20044;-66
2023/04/20 08:36:10;;;;;;;4.32;3.30;;;;;;;21.05;32.20;95948.44;5073153;28;20131;-66
2023/04/20 08:38:37;;;;;;;4.80;3.33;;;;;;;21.10;30.33;95954.16;5072998;28;20051;-65
2023/04/20 08:41:05;;;;;;;5.10;3.53;;;;;;;21.11;34.00;95953.19;5073211;28;20048;-66
2023/04/20 08:43:33;;;;;;;7.65;3.97;;;;;;;20.94;35.39;95947.56;5072927;28;20169;-68
2023/04/20 08:46:01;;;;;;;5.38;3.97;;;;;;;20.69;32.69;95941.78;5073103;28;20052;-68
2023/04/20 08:48:35;;;;;;;5.93;3.97;;;;;;;20.31;34.02;95953.94;5073016;28;20052;-68
2023/04/20 08:51:04;;;;;;;4.20;3.35;;;;;;;20.04;32.24;95955.34;5073134;28;20478;-68
2023/04/20 08:53:32;;;;;;;5.82;3.53;;;;;;;19.90;33.53;95946.72;5072991;28;20045;-68
2023/04/20 08:56:00;;;;;;;6.30;3.75;;;;;;;19.82;33.04;95946.56;5072954;28;20469;-68
2023/04/20 08:58:31;;;;;;;6.20;4.10;;;;;;;19.56;33.89;95947.78;5072925;28;20052;-67
2023/04/20 09:01:00;;;;;;;3.97;3.47;;;;;;;19.71;31.66;95947.47;5072854;28;20084;-67
2023/04/20 09:03:34;;;;;;;5.40;4.00;;;;;;;19.66;33.11;95941.72;5073060;28;20044;-66
2023/04/20 09:06:03;;;;;;;4.65;3.60;;;;;;;19.45;33.15;95931.94;5072789;28;20057;-66
2023/04/20 09:08:38;;;;;;;5.55;4.13;;;;;;;19.44;32.36;95939.06;5072804;28;20388;-66
2023/04/20 09:11:06;;;;;;;4.55;3.20;;;;;;;19.14;31.03;95932.69;5072727;28;20199;-65
2023/04/20 09:13:34;;;;;;;4.95;3.65;;;;;;;18.94;34.21;95936.94;5072716;28;20091;-67
2023/04/20 09:16:11;;;;;;;4.35;3.33;;;;;;;18.92;33.01;95933.56;5072909;28;20080;-66
2023/04/20 09:18:38;;;;;;;9.02;3.60;;;;;;;19.05;33.17;95936.03;5072713;28;20052;-66
2023/04/20 09:21:11;;;;;;;4.55;3.60;;;;;;;18.92;32.83;95942.38;5072699;28;20070;-66
2023/04/20 09:23:40;;;;;;;4.38;3.65;;;;;;;18.72;36.27;95933.38;5072643;28;20132;-65
2023/04/20 09:26:07;;;;;;;5.68;3.25;;;;;;;18.94;34.98;95935.13;5072631;28;20045;-67
2023/04/20 09:28:39;;;;;;;5.07;3.72;;;;;;;19.20;38.25;95933.97;5072526;28;20076;-65
2023/04/20 09:31:06;;;;;;;6.78;3.92;;;;;;;19.51;34.44;95927.94;5072519;28;20048;-65
2023/04/20 09:33:35;;;;;;;3.88;3.45;;;;;;;19.85;34.00;95933.03;5072534;28;20391;-67
2023/04/20 09:36:06;;;;;;;3.40;3.10;;;;;;;19.95;32.00;95931.25;5072485;28;20048;-65
2023/04/20 09:38:35;;;;;;;3.95;3.55;;;;;;;20.03;34.25;95929.78;5072479;28;20044;-65
2023/04/20 09:41:02;;;;;;;8.40;3.70;;;;;;;19.78;33.84;95938.00;5072655;28;20128;-67
2023/04/20 09:43:30;;;;;;;5.35;3.60;;;;;;;19.51;33.12;95934.06;5072406;28;20106;-65
2023/04/20 09:45:58;;;;;;;7.53;3.22;;;;;;;19.21;33.90;95933.03;5074292;28;20052;-66
2023/04/20 09:48:26;;;;;;;4.40;3.78;;;;;;;18.72;34.47;95929.91;5075848;28;20148;-66
2023/04/20 09:50:54;;;;;;;5.88;3.80;;;;;;;18.49;36.80;95929.94;5076094;28;20127;-66
2023/04/20 09:53:22;;;;;;;5.40;4.00;;;;;;;18.17;36.17;95924.44;5076002;28;20398;-65
2023/04/20 09:55:52;;;;;;;5.85;4.20;;;;;;;17.79;36.64;95929.06;5076066;28;20045;-66
2023/04/20 09:58:20;;;;;;;7.47;4.43;;;;;;;17.57;37.43;95923.75;5076068;28;20044;-65
2023/04/20 10:00:48;;;;;;;6.22;3.42;;;;;;;17.39;37.52;95930.31;5075813;28;20822;-66
2023/04/20 10:03:17;;;;;;;4.47;3.60;;;;;;;17.28;36.55;95930.28;5075787;28;20052;-65
2023/04/20 10:05:45;;;;;;;4.38;3.58;;;;;;;17.33;36.30;95929.94;5075821;28;20045;-66
2023/04/20 10:08:12;;;;;;;6.07;4.13;;;;;;;17.38;37.29;95923.34;5075717;28;20049;-66
2023/04/20 10:10:46;;;;;;;5.88;3.90;;;;;;;17.56;37.85;95920.28;5075751;28;20049;-66
2023/04/20 10:13:18;;;;;;;4.00;3.60;;;;;;;17.94;36.92;95916.47;5075566;28;20058;-66
2023/04/20 10:15:45;;;;;;;7.05;3.63;;;;;;;18.40;36.87;95911.19;5075611;28;20049;-66
2023/04/20 10:18:19;;;;;;;8.15;4.00;;;;;;;18.79;37.19;95905.41;5075654;28;20051;-66
2023/04/20 10:20:47;;;;;;;4.15;3.42;;;;;;;18.85;34.48;95906.75;5075373;28;20125;-66
2023/04/20 10:23:15;;;;;;;5.05;3.72;;;;;;;18.83;33.43;95911.31;5075423;28;20044;-67
2023/04/20 10:25:44;;;;;;;5.38;3.58;;;;;;;18.71;33.85;95909.66;5075500;28;20497;-67
2023/04/20 10:28:11;;;;;;;4.05;3.40;;;;;;;18.55;34.16;95913.56;5075391;28;20051;-67
2023/04/20 10:30:51;;;;;;;6.43;4.15;;;;;;;18.28;37.46;95909.50;5075310;28;20044;-67
2023/04/20 10:33:18;;;;;;;4.35;3.67;;;;;;;17.66;40.15;95912.47;5075156;28;20056;-67
2023/04/20 10:35:49;;;;;;;5.55;3.95;;;;;;;17.16;43.47;95903.81;5075211;28;20048;-67
2023/04/20 10:38:29;;;;;;;6.75;4.95;;;;;;;16.95;43.03;95906.25;5075183;28;20083;-66
2023/04/20 10:40:56;;;;;;;6.38;5.10;;;;;;;16.90;46.64;95909.22;5075170;28;20128;-66
2023/04/20 10:43:24;;;;;;;5.78;3.92;;;;;;;16.87;43.79;95905.94;5075202;28;20057;-66
2023/04/20 10:45:52;;;;;;;7.15;4.70;;;;;;;16.90;47.86;95909.22;5074994;28;20052;-66
2023/04/20 10:48:20;;;;;;;6.30;4.55;;;;;;;16.99;45.73;95905.06;5074885;28;20086;-66
2023/04/20 10:50:47;;;;;;;4.32;3.92;;;;;;;17.10;43.26;95908.72;5074855;28;20080;-66
2023/04/20 10:53:19;;;;;;;4.45;4.05;;;;;;;17.17;40.03;95902.88;5074845;28;20059;-66
2023/04/20 10:55:46;;;;;;;4.72;4.20;;;;;;;17.46;45.76;95906.06;5074967;28;20414;-66
2023/04/20 10:58:23;;;;;;;8.95;4.15;;;;;;;17.71;40.69;95899.75;5074766;28;20102;-66
2023/04/20 11:01:03;;;;;;;4.35;3.90;;;;;;;17.70;39.25;95899.84;5074781;28;20556;-66
2023/04/20 11:03:32;;;;;;;4.35;3.90;;;;;;;17.63;39.08;95900.31;5074779;28;20080;-66
2023/04/20 11:06:02;;;;;;;6.73;4.37;;;;;;;17.33;42.77;95912.28;5074888;28;20106;-66
2023/04/20 11:08:40;;;;;;;6.38;4.97;;;;;;;16.97;42.70;95901.66;5074704;28;20288;-66
2023/04/20 11:11:18;;;;;;;10.27;5.40;;;;;;;16.91;48.76;95905.63;5074829;28;20114;-65
2023/04/20 11:13:45;;;;;;;6.95;5.43;;;;;;;16.74;47.91;95913.94;5074452;28;20048;-65
2023/04/20 11:16:15;;;;;;;8.15;5.15;;;;;;;16.30;48.00;95924.94;5074474;28;20140;-66
2023/04/20 11:18:52;;;;;;;10.82;6.20;;;;;;;15.66;49.81;95927.50;5074339;28;20048;-65
2023/04/20 11:21:20;;;;;;;8.25;6.30;;;;;;;15.60;50.45;95919.19;5074617;28;20128;-65
2023/04/20 11:23:47;;;;;;;6.60;5.60;;;;;;;15.56;51.36;95915.06;5074243;28;20135;-66
2023/04/20 11:26:14;;;;;;;6.95;6.25;;;;;;;15.68;49.98;95916.84;5074190;28;20136;-66
2023/04/20 11:28:52;;;;;;;8.70;5.75;;;;;;;15.87;50.43;95907.69;5074287;28;20049;-67
2023/04/20 11:31:21;;;;;;;8.68;5.65;;;;;;;15.81;50.84;95903.69;5074102;28;20129;-65
2023/04/20 11:33:48;;;;;;;6.47;5.07;;;;;;;15.76;47.22;95906.63;5074003;28;20449;-67
2023/04/20 11:36:22;;;;;;;7.68;5.55;;;;;;;15.56;48.21;95893.97;5074064;28;20494;-67
2023/04/20 11:38:50;;;;;;;6.30;5.03;;;;;;;15.48;47.76;95895.34;5073915;28;20153;-66
2023/04/20 11:41:18;;;;;;;8.23;5.00;;;;;;;15.36;48.11;95896.19;5074003;28;20090;-66